Blairsville, GA

2:47 PM EST on December 04, 2016 (GMT -0500)
Old England | | Change Station

Elev 1883 ft 34.90 °N, 84.03 °W | Updated 7 minutes ago

Rain
Rain
43.7 °F
Feels Like 44 °F
N
2.0
Wind Variable Wind from SE
Gusts 8.0 mph

Today
High -- | Low -- °F
--% Chance of Precip.
Yesterday
High -- | Low -- °F
Precip. -- in
Pressure 30.05 in
Visibility 10.0 miles
Clouds Overcast 2700 ft
Windchill 44 °F
Dew Point 42 °F
Humidity 94%
Rainfall 0.66 in
Snow Depth Not available.
7:28 AM 5:24 PM
Waxing Crescent, 25% visible
METAR KRHP 041925Z AUTO 30004KT 10SM RA OVC027 07/07 A3005 RMK AO2 P0005 T00710065
Pressure 30.05 in
Visibility 10.0 miles
Clouds Overcast 2700 ft
Windchill 44 °F
Dew Point 42 °F
Humidity 94%
Rainfall 0.66 in
Snow Depth Not available.
7:28 AM 5:24 PM
Waxing Crescent, 25% visible
METAR KRHP 041925Z AUTO 30004KT 10SM RA OVC027 07/07 A3005 RMK AO2 P0005 T00710065

10-Day Weather Forecast

Almanac

Astronomy

Dec. 04, 2016 Rise Set
Actual Time
Civil Twilight
Nautical Twilight
Astronomical Twilight
Moon
Length of Visible Light
Length of Day
Tomorrow will be .
, % of the Moon is Illuminated

Today's Extremes

State Highs State Lows

Community

WunderPhotos

Upload Photos

1,955,652 photos uploaded!

WunderBlog® & News

Nearby

Air Quality

  Air Quality AQ Index Pollutant
Not available.

Snow Depth

Station Depth Elevation

Earthquake Activity

City Distance Mag. Time & Date
Minimum magnitude displayed is 2.5.

Coastal Water Temperatures

Place Temperature

Stations

Nearby Weather Stations

Station Location Temp. Windchill Dew Point Humidity Wind Precip. Elev Updated Type
                   

Watches & Warnings

There are currently no watches in effect.